Terminal Aerodrome Forecast
Issued by NWS

Home | Current Version | Previous Version | Text Only | Print | Product List | Glossary On
Versions: 1 2 3 4 5 6 7 8 9 10 11 12 13 14 15 16
000
FTUS44 KTSA 231700
TAFBVO
TAF
KBVO 231720Z 2318/2418 02007KT P6SM VCTS SCT050CB SCT200
      TEMPO 2318/2320 VRB20G30KT 4SM TSRA BKN020CB
     FM240000 VRB05KT P6SM FEW250
     FM241500 10007KT P6SM FEW250=

USA.gov is the U.S. government's official web portal to all federal, state and local government web resources and services.